createdAt,value
2017-06-17T00:00:01.304Z,16.58
2017-06-17T00:01:01.899Z,16.6
2017-06-17T00:02:01.579Z,16.63
2017-06-17T00:03:01.845Z,16.63
2017-06-17T00:04:01.528Z,16.57
2017-06-17T00:05:01.523Z,16.57
2017-06-17T00:06:01.658Z,16.61
2017-06-17T00:07:01.538Z,16.57
2017-06-17T00:08:01.171Z,16.46
2017-06-17T00:09:01.448Z,16.43
2017-06-17T00:10:01.435Z,16.43
2017-06-17T00:11:01.411Z,16.48
2017-06-17T00:12:01.699Z,16.5
2017-06-17T00:13:01.489Z,16.5
2017-06-17T00:14:01.688Z,16.51
2017-06-17T00:15:01.369Z,16.53
2017-06-17T00:16:01.649Z,16.46
2017-06-17T00:17:01.619Z,16.51
2017-06-17T00:18:01.659Z,16.43
2017-06-17T00:19:01.281Z,16.35
2017-06-17T00:20:01.673Z,16.36
2017-06-17T00:21:01.249Z,16.42
2017-06-17T00:22:00.925Z,16.41
2017-06-17T00:23:01.649Z,16.39
2017-06-17T00:24:01.496Z,16.41
2017-06-17T00:25:01.582Z,16.39
2017-06-17T00:26:01.221Z,16.31
2017-06-17T00:27:01.460Z,16.34
2017-06-17T00:28:01.558Z,16.34
2017-06-17T00:29:01.108Z,16.12
2017-06-17T00:30:01.508Z,16.04
2017-06-17T00:31:01.441Z,16.04
2017-06-17T00:32:01.449Z,16.08
2017-06-17T00:33:01.039Z,16
2017-06-17T00:34:01.028Z,16.02
2017-06-17T00:35:01.411Z,16.1
2017-06-17T00:36:01.318Z,16.07
2017-06-17T00:37:01.287Z,16.12
2017-06-17T00:38:00.958Z,16.15
2017-06-17T00:39:01.248Z,16.1
2017-06-17T00:40:00.942Z,16.21
2017-06-17T00:41:00.895Z,16.23
2017-06-17T00:42:01.199Z,16.23
2017-06-17T00:43:00.876Z,16.08
2017-06-17T00:44:00.550Z,16.24
2017-06-17T00:45:00.839Z,16.21
2017-06-17T00:46:00.812Z,16.17
2017-06-17T00:47:00.803Z,16.23
2017-06-17T00:48:01.090Z,16.16
2017-06-17T00:49:00.757Z,16.05
2017-06-17T00:50:00.747Z,16.2
2017-06-17T00:51:00.749Z,16.04
2017-06-17T00:52:00.724Z,16.16
2017-06-17T00:53:00.698Z,16.17
2017-06-17T00:54:00.988Z,16.2
2017-06-17T00:55:00.970Z,16.16
2017-06-17T00:56:00.639Z,16.17
2017-06-17T00:57:01.089Z,16.15
2017-06-17T00:58:00.920Z,16.12
2017-06-17T00:59:00.921Z,16.05
2017-06-17T01:00:00.884Z,16.15
2017-06-17T01:01:00.259Z,16.24
2017-06-17T01:02:00.850Z,16.23
2017-06-17T01:03:00.882Z,16.23
2017-06-17T01:04:00.505Z,16.23
2017-06-17T01:05:00.818Z,16.13
2017-06-17T01:06:00.477Z,16.02
2017-06-17T01:07:00.499Z,16.21
2017-06-17T01:08:00.142Z,16.17
2017-06-17T01:09:00.423Z,16.15
2017-06-17T01:10:00.712Z,16.17
2017-06-17T01:11:00.415Z,16.16
2017-06-17T01:12:00.375Z,16.17
2017-06-17T01:13:00.659Z,16.05
2017-06-17T01:14:00.659Z,15.94
2017-06-17T01:15:00.024Z,16.08
2017-06-17T01:16:00.299Z,15.97
2017-06-17T01:17:00.225Z,16
2017-06-17T01:18:00.286Z,16.12
2017-06-17T01:19:00.273Z,16.15
2017-06-17T01:20:00.246Z,15.92
2017-06-17T01:21:00.221Z,15.94
2017-06-17T01:22:00.512Z,16.04
2017-06-17T01:23:00.542Z,16.05
2017-06-17T01:24:00.480Z,16.16
2017-06-17T01:25:00.477Z,16.21
2017-06-17T01:26:00.147Z,16.04
2017-06-17T01:27:00.114Z,16.1
2017-06-17T01:28:00.400Z,16.21
2017-06-17T01:29:00.410Z,16.05
2017-06-17T01:30:00.370Z,16.21
2017-06-17T01:31:00.371Z,16.08
2017-06-17T01:32:00.429Z,16.07
2017-06-17T01:32:59.709Z,16.08
2017-06-17T01:34:00.003Z,16.1
2017-06-17T01:35:00.316Z,16.21
2017-06-17T01:36:00.261Z,16.21
2017-06-17T01:37:00.002Z,16.15
2017-06-17T01:38:00.298Z,16.1
2017-06-17T01:39:00.224Z,16.24
2017-06-17T01:40:00.209Z,16.08
2017-06-17T01:41:00.184Z,16.12
2017-06-17T01:42:00.171Z,16.13
2017-06-17T01:43:00.139Z,16.15
2017-06-17T01:43:59.850Z,16.15
2017-06-17T01:45:00.120Z,16.08
2017-06-17T01:45:59.791Z,16.07
2017-06-17T01:46:59.539Z,16.04
2017-06-17T01:48:00.064Z,16.17
2017-06-17T01:49:00.038Z,16.07
2017-06-17T01:49:59.723Z,16.13
2017-06-17T01:51:00.008Z,16.24
2017-06-17T01:51:59.780Z,16.26
2017-06-17T01:52:59.979Z,16.21
2017-06-17T01:54:00.028Z,16.26
2017-06-17T01:54:59.328Z,16.17
2017-06-17T01:55:59.984Z,16.12
2017-06-17T01:56:59.605Z,16.17
2017-06-17T01:57:59.588Z,16.23
2017-06-17T01:58:59.564Z,16.28
2017-06-17T01:59:59.559Z,16.2
2017-06-17T02:00:59.839Z,16.17
2017-06-17T02:01:59.839Z,16.35
2017-06-17T02:02:59.510Z,16.17
2017-06-17T02:03:59.569Z,16.17
2017-06-17T02:04:59.463Z,16.17
2017-06-17T02:05:59.510Z,16.27
2017-06-17T02:06:59.428Z,16.16
2017-06-17T02:07:59.725Z,16.15
2017-06-17T02:08:59.698Z,16.2
2017-06-17T02:09:59.399Z,16.05
2017-06-17T02:10:59.372Z,16.17
2017-06-17T02:11:59.366Z,16.23
2017-06-17T02:12:59.022Z,16.21
2017-06-17T02:13:59.617Z,16.13
2017-06-17T02:14:59.291Z,16.16
2017-06-17T02:15:59.592Z,16.07
2017-06-17T02:16:59.600Z,15.95
2017-06-17T02:17:59.242Z,15.94
2017-06-17T02:18:59.350Z,16
2017-06-17T02:19:59.519Z,16.08
2017-06-17T02:20:59.202Z,16.07
2017-06-17T02:21:59.491Z,16.05
2017-06-17T02:22:59.172Z,16.07
2017-06-17T02:23:59.439Z,16.12
2017-06-17T02:24:59.431Z,16.23
2017-06-17T02:25:59.407Z,16.21
2017-06-17T02:26:59.399Z,16.2
2017-06-17T02:27:59.377Z,16.15
2017-06-17T02:28:59.379Z,16.26
2017-06-17T02:29:59.030Z,16.23
2017-06-17T02:30:59.030Z,16.23
2017-06-17T02:31:58.712Z,16.31
2017-06-17T02:32:58.983Z,16.32
2017-06-17T02:33:58.981Z,16.21
2017-06-17T02:34:59.271Z,16.38
2017-06-17T02:35:58.950Z,16.27
2017-06-17T02:36:59.220Z,16.31
2017-06-17T02:37:58.615Z,16.26
2017-06-17T02:38:58.881Z,16.17
2017-06-17T02:39:58.568Z,16.27
2017-06-17T02:40:58.546Z,16.27
2017-06-17T02:41:59.139Z,16.17
2017-06-17T02:42:59.129Z,16.34
2017-06-17T02:43:58.807Z,16.35
2017-06-17T02:44:59.088Z,16.32
2017-06-17T02:45:59.084Z,16.17
2017-06-17T02:46:59.073Z,16.27
2017-06-17T02:47:59.060Z,16.38
2017-06-17T02:48:58.730Z,16.34
2017-06-17T02:49:58.721Z,16.26
2017-06-17T02:50:58.978Z,16.31
2017-06-17T02:51:58.961Z,16.31
2017-06-17T02:52:58.957Z,16.27
2017-06-17T02:53:58.649Z,16.27
2017-06-17T02:54:58.312Z,16.24
2017-06-17T02:55:58.919Z,16.2
2017-06-17T02:56:58.879Z,16.26
2017-06-17T02:57:58.878Z,16.21
2017-06-17T02:58:58.253Z,16.2
2017-06-17T02:59:58.833Z,16.23
2017-06-17T03:00:58.821Z,16.23
2017-06-17T03:01:58.802Z,16.31
2017-06-17T03:02:58.801Z,16.32
2017-06-17T03:03:58.782Z,16.36
2017-06-17T03:04:58.751Z,16.17
2017-06-17T03:05:58.433Z,16.27
2017-06-17T03:06:58.407Z,16.17
2017-06-17T03:07:58.721Z,16.15
2017-06-17T03:08:58.373Z,16.21
2017-06-17T03:09:58.676Z,16.2
2017-06-17T03:10:58.671Z,16.21
2017-06-17T03:11:58.338Z,16.24
2017-06-17T03:12:58.623Z,16.21
2017-06-17T03:13:58.050Z,16.24
2017-06-17T03:14:58.592Z,16.26
2017-06-17T03:15:58.560Z,16.16
2017-06-17T03:16:58.555Z,16.24
2017-06-17T03:17:57.976Z,16.15
2017-06-17T03:18:58.206Z,16.23
2017-06-17T03:19:58.500Z,16.15
2017-06-17T03:20:58.172Z,16.21
2017-06-17T03:21:58.153Z,16.17
2017-06-17T03:22:58.134Z,16.34
2017-06-17T03:23:58.431Z,16.26
2017-06-17T03:24:58.102Z,16.36
2017-06-17T03:25:58.103Z,16.32
2017-06-17T03:26:58.076Z,16.38
2017-06-17T03:27:58.057Z,16.32
2017-06-17T03:28:57.720Z,16.31
2017-06-17T03:29:58.320Z,16.35
2017-06-17T03:30:58.008Z,16.41
2017-06-17T03:31:58.295Z,16.39
2017-06-17T03:32:58.270Z,16.41
2017-06-17T03:33:58.253Z,16.34
2017-06-17T03:34:57.654Z,16.41
2017-06-17T03:35:58.231Z,16.41
2017-06-17T03:36:58.208Z,16.43
2017-06-17T03:37:57.631Z,16.32
2017-06-17T03:38:58.294Z,16.41
2017-06-17T03:39:58.212Z,16.35
2017-06-17T03:40:57.832Z,16.38
2017-06-17T03:41:57.892Z,16.45
2017-06-17T03:42:58.172Z,16.36
2017-06-17T03:43:58.204Z,16.2
2017-06-17T03:44:57.771Z,16.2
2017-06-17T03:45:58.051Z,16.24
2017-06-17T03:46:58.032Z,16.2
2017-06-17T03:47:57.728Z,16.16
2017-06-17T03:48:57.403Z,15.98
2017-06-17T03:49:57.777Z,16.02
2017-06-17T03:50:58.121Z,16.01
2017-06-17T03:51:57.954Z,16.04
2017-06-17T03:52:57.933Z,16.16
2017-06-17T03:53:57.960Z,16.23
2017-06-17T03:54:57.589Z,16.17
2017-06-17T03:55:57.903Z,16.17
2017-06-17T03:56:58.019Z,16.26
2017-06-17T03:57:57.582Z,16.34
2017-06-17T03:58:57.851Z,16.32
2017-06-17T03:59:57.509Z,16.42
2017-06-17T04:00:57.890Z,16.43
2017-06-17T04:01:57.472Z,16.45
2017-06-17T04:02:57.771Z,16.48
2017-06-17T04:03:57.764Z,16.58
2017-06-17T04:04:57.806Z,16.46
2017-06-17T04:05:57.721Z,16.57
2017-06-17T04:06:57.723Z,16.54
2017-06-17T04:07:57.787Z,16.61
2017-06-17T04:08:57.050Z,16.57
2017-06-17T04:09:57.327Z,16.58
2017-06-17T04:10:57.638Z,16.61
2017-06-17T04:11:57.303Z,16.6
2017-06-17T04:12:57.293Z,16.6
2017-06-17T04:13:57.592Z,16.54
2017-06-17T04:14:57.579Z,16.54
2017-06-17T04:15:57.235Z,16.46
2017-06-17T04:16:57.609Z,16.53
2017-06-17T04:17:57.569Z,16.56
2017-06-17T04:18:57.222Z,16.48
2017-06-17T04:19:57.557Z,16.43
2017-06-17T04:20:57.458Z,16.43
2017-06-17T04:21:57.561Z,16.5
2017-06-17T04:22:57.431Z,16.48
2017-06-17T04:23:57.102Z,16.48
2017-06-17T04:24:57.097Z,16.53
2017-06-17T04:25:57.065Z,16.64
2017-06-17T04:26:57.373Z,16.64
2017-06-17T04:27:56.738Z,16.56
2017-06-17T04:28:57.023Z,16.51
2017-06-17T04:29:57.420Z,16.54
2017-06-17T04:30:57.003Z,16.5
2017-06-17T04:31:57.339Z,16.51
2017-06-17T04:32:56.960Z,16.48
2017-06-17T04:33:57.243Z,16.54
2017-06-17T04:34:57.228Z,16.46
2017-06-17T04:35:56.903Z,16.5
2017-06-17T04:36:57.193Z,16.5
2017-06-17T04:37:57.172Z,16.56
2017-06-17T04:38:56.854Z,16.54
2017-06-17T04:39:57.142Z,16.6
2017-06-17T04:40:56.823Z,16.34
2017-06-17T04:41:56.803Z,16.21
2017-06-17T04:42:57.086Z,16.27
2017-06-17T04:43:56.461Z,16.24
2017-06-17T04:44:57.057Z,16.28
2017-06-17T04:45:57.055Z,16.32
2017-06-17T04:46:57.019Z,16.42
2017-06-17T04:47:57.003Z,16.48
2017-06-17T04:48:56.680Z,16.54
2017-06-17T04:49:56.974Z,16.56
2017-06-17T04:50:56.661Z,16.56
2017-06-17T04:51:56.682Z,16.58
2017-06-17T04:52:56.619Z,16.46
2017-06-17T04:53:56.912Z,16.5
2017-06-17T04:54:56.583Z,16.57
2017-06-17T04:55:56.583Z,16.6
2017-06-17T04:56:56.849Z,16.63
2017-06-17T04:57:56.871Z,16.63
2017-06-17T04:58:56.822Z,16.68
2017-06-17T04:59:56.193Z,16.64
2017-06-17T05:00:56.182Z,16.66
2017-06-17T05:01:56.772Z,16.54
2017-06-17T05:02:56.447Z,16.51
2017-06-17T05:03:56.491Z,16.57
2017-06-17T05:04:56.420Z,16.64
2017-06-17T05:05:56.402Z,16.51
2017-06-17T05:06:56.381Z,16.64
2017-06-17T05:07:56.373Z,16.64
2017-06-17T05:08:56.671Z,16.78
2017-06-17T05:09:56.020Z,16.74
2017-06-17T05:10:56.641Z,16.76
2017-06-17T05:11:56.306Z,16.68
2017-06-17T05:12:56.804Z,16.78
2017-06-17T05:13:56.576Z,16.68
2017-06-17T05:14:56.583Z,16.66
2017-06-17T05:15:56.610Z,16.72
2017-06-17T05:16:56.221Z,16.66
2017-06-17T05:17:56.191Z,16.64
2017-06-17T05:18:56.502Z,16.71
2017-06-17T05:19:55.865Z,16.69
2017-06-17T05:20:56.470Z,16.63
2017-06-17T05:21:55.826Z,16.78
2017-06-17T05:22:55.869Z,16.81
2017-06-17T05:23:56.412Z,16.74
2017-06-17T05:24:56.149Z,16.74
2017-06-17T05:25:56.390Z,16.68
2017-06-17T05:26:56.092Z,16.69
2017-06-17T05:27:56.042Z,16.66
2017-06-17T05:28:56.023Z,16.63
2017-06-17T05:29:56.317Z,16.72
2017-06-17T05:30:55.979Z,16.71
2017-06-17T05:31:55.661Z,16.63
2017-06-17T05:32:55.968Z,16.72
2017-06-17T05:33:55.933Z,16.63
2017-06-17T05:34:55.602Z,16.57
2017-06-17T05:35:55.900Z,16.6
2017-06-17T05:36:56.201Z,16.64
2017-06-17T05:37:55.577Z,16.61
2017-06-17T05:38:55.582Z,16.71
2017-06-17T05:39:55.836Z,16.69
2017-06-17T05:40:55.808Z,16.68
2017-06-17T05:41:55.792Z,16.76
2017-06-17T05:42:55.776Z,16.76
2017-06-17T05:43:55.462Z,16.76
2017-06-17T05:44:56.070Z,16.78
2017-06-17T05:45:56.041Z,16.75
2017-06-17T05:46:56.023Z,16.79
2017-06-17T05:47:55.687Z,16.83
2017-06-17T05:48:55.681Z,16.71
2017-06-17T05:49:55.973Z,16.66
2017-06-17T05:50:55.651Z,16.66
2017-06-17T05:51:55.641Z,16.79
2017-06-17T05:52:55.936Z,16.71
2017-06-17T05:53:55.295Z,16.75
2017-06-17T05:54:55.581Z,16.82
2017-06-17T05:55:55.901Z,16.83
2017-06-17T05:56:55.852Z,16.83
2017-06-17T05:57:55.881Z,16.83
2017-06-17T05:58:55.520Z,16.83
2017-06-17T05:59:55.811Z,16.85
2017-06-17T06:00:55.477Z,16.81
2017-06-17T06:01:55.456Z,16.83
2017-06-17T06:02:55.457Z,16.83
2017-06-17T06:03:55.441Z,16.66
2017-06-17T06:04:55.720Z,16.58
2017-06-17T06:05:55.403Z,16.57
2017-06-17T06:06:55.682Z,16.53
2017-06-17T06:07:55.671Z,16.61
2017-06-17T06:08:55.355Z,16.61
2017-06-17T06:09:55.642Z,16.66
2017-06-17T06:10:55.347Z,16.71
2017-06-17T06:11:54.996Z,16.79
2017-06-17T06:12:55.292Z,16.87
2017-06-17T06:13:55.570Z,16.82
2017-06-17T06:14:55.567Z,16.81
2017-06-17T06:15:55.266Z,16.96
2017-06-17T06:16:55.526Z,16.76
2017-06-17T06:17:55.521Z,16.76
2017-06-17T06:18:55.485Z,16.81
2017-06-17T06:19:55.486Z,16.94
2017-06-17T06:20:55.455Z,16.98
2017-06-17T06:21:55.451Z,16.93
2017-06-17T06:22:55.423Z,16.97
2017-06-17T06:23:55.415Z,17
2017-06-17T06:24:55.413Z,17.12
2017-06-17T06:25:55.073Z,17.26
2017-06-17T06:26:55.368Z,17.19
2017-06-17T06:27:55.352Z,17.26
2017-06-17T06:28:55.334Z,17.3
2017-06-17T06:29:55.321Z,17.4
2017-06-17T06:30:54.993Z,17.45
2017-06-17T06:31:55.277Z,17.45
2017-06-17T06:32:55.278Z,17.54
2017-06-17T06:33:55.247Z,17.58
2017-06-17T06:34:55.224Z,17.58
2017-06-17T06:35:54.914Z,17.62
2017-06-17T06:36:55.211Z,17.68
2017-06-17T06:37:55.176Z,17.83
2017-06-17T06:38:55.172Z,17.78
2017-06-17T06:39:55.175Z,17.85
2017-06-17T06:40:54.824Z,17.86
2017-06-17T06:41:54.804Z,17.89
2017-06-17T06:42:55.122Z,17.75
2017-06-17T06:43:54.478Z,17.78
2017-06-17T06:44:54.764Z,17.78
2017-06-17T06:45:54.760Z,17.77
2017-06-17T06:46:54.742Z,17.82
2017-06-17T06:47:55.032Z,17.89
2017-06-17T06:48:55.024Z,17.86
2017-06-17T06:49:54.381Z,18.04
2017-06-17T06:50:54.663Z,17.96
2017-06-17T06:51:54.967Z,18.04
2017-06-17T06:52:54.940Z,17.98
2017-06-17T06:53:54.661Z,18.01
2017-06-17T06:54:54.718Z,18.07
2017-06-17T06:55:54.600Z,17.96
2017-06-17T06:56:54.898Z,18.07
2017-06-17T06:57:54.856Z,17.98
2017-06-17T06:58:54.573Z,18
2017-06-17T06:59:54.832Z,17.86
2017-06-17T07:00:54.834Z,17.83
2017-06-17T07:01:54.817Z,17.86
2017-06-17T07:02:54.908Z,17.95
2017-06-17T07:03:54.782Z,18.02
2017-06-17T07:04:54.803Z,17.83
2017-06-17T07:05:54.152Z,17.87
2017-06-17T07:06:54.736Z,17.96
2017-06-17T07:07:54.838Z,17.93
2017-06-17T07:08:54.792Z,18.08
2017-06-17T07:09:54.714Z,18.11
2017-06-17T07:10:54.148Z,18.1
2017-06-17T07:11:54.353Z,18.11
2017-06-17T07:12:54.463Z,18.1
2017-06-17T07:13:54.640Z,18.12
2017-06-17T07:14:54.302Z,18.1
2017-06-17T07:15:54.301Z,18.23
2017-06-17T07:16:53.977Z,18.19
2017-06-17T07:17:54.335Z,18.08
2017-06-17T07:18:54.563Z,18.01
2017-06-17T07:19:54.212Z,18
2017-06-17T07:20:54.257Z,17.95
2017-06-17T07:21:53.936Z,18.02
2017-06-17T07:22:53.940Z,17.98
2017-06-17T07:23:53.870Z,18.02
2017-06-17T07:24:54.453Z,17.98
2017-06-17T07:25:54.343Z,18.12
2017-06-17T07:26:54.506Z,17.87
2017-06-17T07:27:54.419Z,17.93
2017-06-17T07:28:54.391Z,17.95
2017-06-17T07:29:54.417Z,18
2017-06-17T07:30:54.471Z,17.98
2017-06-17T07:31:54.032Z,17.96
2017-06-17T07:32:54.365Z,17.77
2017-06-17T07:33:54.311Z,17.82
2017-06-17T07:34:54.322Z,17.85
2017-06-17T07:35:53.963Z,17.98
2017-06-17T07:36:53.655Z,17.92
2017-06-17T07:37:54.367Z,17.98
2017-06-17T07:38:54.262Z,18.11
2017-06-17T07:39:54.223Z,18.12
2017-06-17T07:40:53.754Z,18.2
2017-06-17T07:41:53.568Z,18.1
2017-06-17T07:42:54.193Z,18.19
2017-06-17T07:43:53.924Z,18.15
2017-06-17T07:44:53.832Z,18.14
2017-06-17T07:45:53.580Z,18.27
2017-06-17T07:46:54.119Z,18.25
2017-06-17T07:47:54.189Z,18.37
2017-06-17T07:48:54.363Z,18.44
2017-06-17T07:49:53.512Z,18.22
2017-06-17T07:50:53.958Z,18.22
2017-06-17T07:51:53.523Z,18.37
2017-06-17T07:52:54.134Z,18.35
2017-06-17T07:53:54.054Z,18.26
2017-06-17T07:54:53.694Z,18.25
2017-06-17T07:55:54.006Z,18.26
2017-06-17T07:56:53.993Z,18.29
2017-06-17T07:57:53.330Z,18.23
2017-06-17T07:58:53.934Z,18.25
2017-06-17T07:59:53.648Z,18.27
2017-06-17T08:00:53.967Z,18.38
2017-06-17T08:01:53.955Z,18.44
2017-06-17T08:02:53.871Z,18.56
2017-06-17T08:03:53.846Z,18.5
2017-06-17T08:04:53.548Z,18.47
2017-06-17T08:05:53.813Z,18.42
2017-06-17T08:06:53.681Z,18.56
2017-06-17T08:07:53.784Z,18.56
2017-06-17T08:08:53.797Z,18.65
2017-06-17T08:09:53.766Z,18.74
2017-06-17T08:10:53.538Z,18.85
2017-06-17T08:11:53.434Z,18.78
2017-06-17T08:12:53.112Z,18.81
2017-06-17T08:13:53.113Z,18.93
2017-06-17T08:14:53.783Z,18.77
2017-06-17T08:15:53.056Z,18.8
2017-06-17T08:16:53.671Z,18.88
2017-06-17T08:17:53.344Z,18.9
2017-06-17T08:18:53.336Z,18.97
2017-06-17T08:19:53.304Z,18.95
2017-06-17T08:20:53.292Z,18.9
2017-06-17T08:21:53.288Z,18.95
2017-06-17T08:22:52.968Z,18.93
2017-06-17T08:23:53.564Z,18.95
2017-06-17T08:24:53.574Z,19.04
2017-06-17T08:25:53.256Z,19.04
2017-06-17T08:26:53.521Z,19.02
2017-06-17T08:27:53.204Z,19.07
2017-06-17T08:28:53.183Z,19.16
2017-06-17T08:29:53.484Z,19.15
2017-06-17T08:30:53.158Z,19.18
2017-06-17T08:31:53.444Z,19.04
2017-06-17T08:32:53.442Z,19.14
2017-06-17T08:33:53.421Z,19.02
2017-06-17T08:34:53.404Z,19
2017-06-17T08:35:53.455Z,19.06
2017-06-17T08:36:52.768Z,18.92
2017-06-17T08:37:53.054Z,18.93
2017-06-17T08:38:53.336Z,18.95
2017-06-17T08:39:53.022Z,19.06
2017-06-17T08:40:53.002Z,19.07
2017-06-17T08:41:53.314Z,19.15
2017-06-17T08:42:53.303Z,19.25
2017-06-17T08:43:53.262Z,19.23
2017-06-17T08:44:52.953Z,19.33
2017-06-17T08:45:52.690Z,19.34
2017-06-17T08:46:53.213Z,19.28
2017-06-17T08:47:52.903Z,19.33
2017-06-17T08:48:53.215Z,19.28
2017-06-17T08:49:52.874Z,19.19
2017-06-17T08:50:52.864Z,19.22
2017-06-17T08:51:53.149Z,19.34
2017-06-17T08:52:53.136Z,19.37
2017-06-17T08:53:53.119Z,19.46
2017-06-17T08:54:53.113Z,19.41
2017-06-17T08:55:53.138Z,19.44
2017-06-17T08:56:53.106Z,19.59
2017-06-17T08:57:53.077Z,19.43
2017-06-17T08:58:53.046Z,19.26
2017-06-17T08:59:52.744Z,19.33
2017-06-17T09:00:53.179Z,19.31
2017-06-17T09:01:53.032Z,19.36
2017-06-17T09:02:52.682Z,19.37
2017-06-17T09:03:52.439Z,19.43
2017-06-17T09:04:52.965Z,19.56
2017-06-17T09:05:52.971Z,19.66
2017-06-17T09:06:52.948Z,19.73
2017-06-17T09:07:52.661Z,19.74
2017-06-17T09:08:52.935Z,19.8
2017-06-17T09:09:52.937Z,19.8
2017-06-17T09:10:52.914Z,19.8
2017-06-17T09:11:52.886Z,19.81
2017-06-17T09:12:52.876Z,19.85
2017-06-17T09:13:52.904Z,19.86
2017-06-17T09:14:52.827Z,19.81
2017-06-17T09:15:52.923Z,19.81
2017-06-17T09:16:52.513Z,19.77
2017-06-17T09:17:52.811Z,19.8
2017-06-17T09:18:52.470Z,19.71
2017-06-17T09:19:52.783Z,19.8
2017-06-17T09:20:52.769Z,19.7
2017-06-17T09:21:52.443Z,19.77
2017-06-17T09:22:52.522Z,19.81
2017-06-17T09:23:52.393Z,19.63
2017-06-17T09:24:52.396Z,19.58
2017-06-17T09:25:52.708Z,19.66
2017-06-17T09:26:52.353Z,19.53
2017-06-17T09:27:52.653Z,19.61
2017-06-17T09:28:52.322Z,19.73
2017-06-17T09:29:52.315Z,19.74
2017-06-17T09:30:51.992Z,19.88
2017-06-17T09:31:52.598Z,19.81
2017-06-17T09:32:52.271Z,19.96
2017-06-17T09:33:52.572Z,19.93
2017-06-17T09:34:52.239Z,19.96
2017-06-17T09:35:52.262Z,20.01
2017-06-17T09:36:52.522Z,20.1
2017-06-17T09:37:52.501Z,20.06
2017-06-17T09:38:52.493Z,19.95
2017-06-17T09:39:52.475Z,19.8
2017-06-17T09:40:52.153Z,19.76
2017-06-17T09:41:52.462Z,19.56
2017-06-17T09:42:52.431Z,19.55
2017-06-17T09:43:52.416Z,19.52
2017-06-17T09:44:52.108Z,19.69
2017-06-17T09:45:52.100Z,19.67
2017-06-17T09:46:52.389Z,19.81
2017-06-17T09:47:52.378Z,19.88
2017-06-17T09:48:51.742Z,19.96
2017-06-17T09:49:52.344Z,19.99
2017-06-17T09:50:52.316Z,20.08
2017-06-17T09:51:51.697Z,19.92
2017-06-17T09:52:52.081Z,20.11
2017-06-17T09:53:52.024Z,20.08
2017-06-17T09:54:51.991Z,20.04
2017-06-17T09:55:51.960Z,20.04
2017-06-17T09:56:52.012Z,20.03
2017-06-17T09:57:52.241Z,19.98
2017-06-17T09:58:51.671Z,20.08
2017-06-17T09:59:51.922Z,20.1
2017-06-17T10:00:52.211Z,20.17
2017-06-17T10:01:52.180Z,20.14
2017-06-17T10:02:51.872Z,20.2
2017-06-17T10:03:51.944Z,20.18
2017-06-17T10:04:51.830Z,20.23
2017-06-17T10:05:51.818Z,20.2
2017-06-17T10:06:51.494Z,20.25
2017-06-17T10:07:52.105Z,20.22
2017-06-17T10:08:51.789Z,20.17
2017-06-17T10:09:51.762Z,20.25
2017-06-17T10:10:52.063Z,20.25
2017-06-17T10:11:52.083Z,20.22
2017-06-17T10:12:51.732Z,20.23
2017-06-17T10:13:51.713Z,20.22
2017-06-17T10:14:51.711Z,20.2
2017-06-17T10:15:52.026Z,20.16
2017-06-17T10:16:51.690Z,20.25
2017-06-17T10:17:52.040Z,20.18
2017-06-17T10:18:51.330Z,20.17
2017-06-17T10:19:52.080Z,20.04
2017-06-17T10:20:51.930Z,20.13
2017-06-17T10:21:51.899Z,20.2
2017-06-17T10:22:51.281Z,20.23
2017-06-17T10:23:51.275Z,20.23
2017-06-17T10:24:51.249Z,20.16
2017-06-17T10:25:51.880Z,20.1
2017-06-17T10:26:51.837Z,20.1
2017-06-17T10:27:51.823Z,20.13
2017-06-17T10:28:51.800Z,20.18
2017-06-17T10:29:51.791Z,20.32
2017-06-17T10:30:51.789Z,20.28
2017-06-17T10:31:51.469Z,20.38
2017-06-17T10:32:51.823Z,20.48
2017-06-17T10:33:51.746Z,20.52
2017-06-17T10:34:51.749Z,20.43
2017-06-17T10:35:51.410Z,20.58
2017-06-17T10:36:51.450Z,20.52
2017-06-17T10:37:51.699Z,20.51
2017-06-17T10:38:51.690Z,20.48
2017-06-17T10:39:51.361Z,20.49
2017-06-17T10:40:51.340Z,20.44
2017-06-17T10:41:51.629Z,20.51
2017-06-17T10:42:51.622Z,20.41
2017-06-17T10:43:51.607Z,20.51
2017-06-17T10:44:51.610Z,20.47
2017-06-17T10:45:50.959Z,20.43
2017-06-17T10:46:51.631Z,20.43
2017-06-17T10:47:51.583Z,20.51
2017-06-17T10:48:51.547Z,20.36
2017-06-17T10:49:51.546Z,20.54
2017-06-17T10:50:51.211Z,20.47
2017-06-17T10:51:51.511Z,20.47
2017-06-17T10:52:51.491Z,20.41
2017-06-17T10:53:51.490Z,20.48
2017-06-17T10:54:51.174Z,20.44
2017-06-17T10:55:51.136Z,20.41
2017-06-17T10:56:51.149Z,20.52
2017-06-17T10:57:51.432Z,20.43
2017-06-17T10:58:51.418Z,20.44
2017-06-17T10:59:51.086Z,20.36
2017-06-17T11:00:51.067Z,20.36
2017-06-17T11:01:51.368Z,20.41
2017-06-17T11:02:50.750Z,20.4
2017-06-17T11:03:51.335Z,20.47
2017-06-17T11:04:51.323Z,20.48
2017-06-17T11:05:50.690Z,20.4
2017-06-17T11:06:51.004Z,20.43
2017-06-17T11:07:51.292Z,20.57
2017-06-17T11:08:50.969Z,20.51
2017-06-17T11:09:51.271Z,20.54
2017-06-17T11:10:50.940Z,20.43
2017-06-17T11:11:50.625Z,20.55
2017-06-17T11:12:51.242Z,20.62
2017-06-17T11:13:51.232Z,20.54
2017-06-17T11:14:50.584Z,20.57
2017-06-17T11:15:51.179Z,20.58
2017-06-17T11:16:51.170Z,20.51
2017-06-17T11:17:50.545Z,20.51
2017-06-17T11:18:50.831Z,20.38
2017-06-17T11:19:50.829Z,20.43
2017-06-17T11:20:51.130Z,20.47
2017-06-17T11:21:50.813Z,20.47
2017-06-17T11:22:51.082Z,20.49
2017-06-17T11:23:51.081Z,20.54
2017-06-17T11:24:50.444Z,20.49
2017-06-17T11:25:50.818Z,20.54
2017-06-17T11:26:50.436Z,20.44
2017-06-17T11:27:51.021Z,20.55
2017-06-17T11:28:50.399Z,20.67
2017-06-17T11:29:51.009Z,20.69
2017-06-17T11:30:50.676Z,20.7
2017-06-17T11:31:50.989Z,20.55
2017-06-17T11:32:50.653Z,20.64
2017-06-17T11:33:50.663Z,20.66
2017-06-17T11:34:50.929Z,20.69
2017-06-17T11:35:50.352Z,20.81
2017-06-17T11:36:50.598Z,20.92
2017-06-17T11:37:50.655Z,21.1
2017-06-17T11:38:50.582Z,21.17
2017-06-17T11:39:50.990Z,21.13
2017-06-17T11:40:50.560Z,21.25
2017-06-17T11:41:50.540Z,21.22
2017-06-17T11:42:50.521Z,21.26
2017-06-17T11:43:50.824Z,21.26
2017-06-17T11:44:50.799Z,21.24
2017-06-17T11:45:50.593Z,21.33
2017-06-17T11:46:50.794Z,21.24
2017-06-17T11:47:50.477Z,21.34
2017-06-17T11:48:50.563Z,21.26
2017-06-17T11:49:50.820Z,21.24
2017-06-17T11:50:50.538Z,21.34
2017-06-17T11:51:50.709Z,21.31
2017-06-17T11:52:50.477Z,21.31
2017-06-17T11:53:50.708Z,21.28
2017-06-17T11:54:50.796Z,21.19
2017-06-17T11:55:50.677Z,21.18
2017-06-17T11:56:50.404Z,21.24
2017-06-17T11:57:50.656Z,21.26
2017-06-17T11:58:50.637Z,21.28
2017-06-17T11:59:50.620Z,21.28
2017-06-17T12:00:50.601Z,21.26
2017-06-17T12:01:50.593Z,21.25
2017-06-17T12:02:50.590Z,21.28
2017-06-17T12:03:50.572Z,21.26
2017-06-17T12:04:50.575Z,21.31
2017-06-17T12:05:50.607Z,21.17
2017-06-17T12:06:50.522Z,21.1
2017-06-17T12:07:50.203Z,20.95
2017-06-17T12:08:50.521Z,20.99
2017-06-17T12:09:50.492Z,20.99
2017-06-17T12:10:50.469Z,20.94
2017-06-17T12:11:50.151Z,21.07
2017-06-17T12:12:50.433Z,20.99
2017-06-17T12:13:50.433Z,20.97
2017-06-17T12:14:50.440Z,20.92
2017-06-17T12:15:50.101Z,21
2017-06-17T12:16:50.070Z,21.03
2017-06-17T12:17:50.070Z,21.04
2017-06-17T12:18:50.067Z,21.1
2017-06-17T12:19:50.091Z,21.04
2017-06-17T12:20:50.372Z,21.17
2017-06-17T12:21:50.353Z,21.21
2017-06-17T12:22:50.326Z,21.29
2017-06-17T12:23:50.311Z,21.43
2017-06-17T12:24:49.980Z,21.5
2017-06-17T12:25:50.278Z,21.65
2017-06-17T12:26:50.261Z,21.76
2017-06-17T12:27:50.254Z,21.97
2017-06-17T12:28:49.954Z,22.05
2017-06-17T12:29:50.222Z,22.1
2017-06-17T12:30:49.902Z,22.37
2017-06-17T12:31:50.192Z,22.55
2017-06-17T12:32:49.900Z,22.61
2017-06-17T12:33:49.862Z,22.51
2017-06-17T12:34:49.866Z,22.54
2017-06-17T12:35:50.177Z,22.43
2017-06-17T12:36:49.831Z,22.57
2017-06-17T12:37:50.130Z,22.66
2017-06-17T12:38:50.111Z,22.92
2017-06-17T12:39:50.109Z,23.12
2017-06-17T12:40:50.097Z,23.38
2017-06-17T12:41:50.110Z,23.28
2017-06-17T12:42:50.068Z,23.45
2017-06-17T12:43:50.051Z,23.42
2017-06-17T12:44:50.050Z,23.62
2017-06-17T12:45:50.060Z,23.82
2017-06-17T12:46:50.028Z,23.99
2017-06-17T12:47:50.010Z,24.09
2017-06-17T12:48:49.682Z,24.19
2017-06-17T12:49:50.000Z,24.37
2017-06-17T12:50:49.983Z,24.44
2017-06-17T12:51:49.973Z,24.06
2017-06-17T12:52:49.652Z,23.99
2017-06-17T12:53:49.974Z,23.85
2017-06-17T12:54:49.952Z,23.97